Alexander Maersk — OZRC2 — position and weather

sailwx.info

Track history (hours):
 
Tides and Currents Weather Stations Pressure Air Temp Water Temp Dewpoint Dewpoint Depression Visibility Wind Speed Wind Dir Waves Ship Positions

Alexander Maersk

Last reported at 2016-Sep-24 18:06 UTC. Time now 2016-Oct-01 22:24 UTC.
Position N 35°46' E 014°35'.

Length 155 m; draft 9 m.

Type: Cargo ship. MMSI: 219470000.

Date/timePositionNaut miles runAvg speedWind from/ knotsBaromVisibWave heightAir tempDewpointWater temp
2016-Sep-24 18:06N 35°46' E 014°35'3 6.0
2016-Sep-24 17:33N 35°49' E 014°32'0 0.0
2016-Sep-24 10:13N 35°49' E 014°32'0 0.0
2016-Sep-24 03:31N 35°49' E 014°32'0 0.0
2016-Sep-23 13:04N 35°49' E 014°32'6 1.8
2016-Sep-23 09:31N 35°51' E 014°40'0 0.0
2016-Sep-23 06:31N 35°51' E 014°40'0 0.0
2016-Sep-23 04:31N 35°51' E 014°40'0 0.0
2016-Sep-23 03:28N 35°51' E 014°40'0 0.0
2016-Sep-23 02:31N 35°51' E 014°40'0 0.0
2016-Sep-23 01:31N 35°51' E 014°40'0 0.0
2016-Sep-23 00:31N 35°51' E 014°40'0 0.0
2016-Sep-22 23:31N 35°51' E 014°40'0 0.0
2016-Sep-22 20:31N 35°51' E 014°40'0 0.0
2016-Sep-22 12:28N 35°51' E 014°40'0 0.0
2016-Sep-22 04:33N 35°51' E 014°40'0 0.1
2016-Sep-22 03:33N 35°51' E 014°40'0 0.0
2016-Sep-22 00:33N 35°51' E 014°40'0 0.0
2016-Sep-21 23:33N 35°51' E 014°40'0 0.0
2016-Sep-21 22:33N 35°51' E 014°40'0 0.0
2016-Sep-21 19:33N 35°51' E 014°40'0 0.0
2016-Sep-21 16:33N 35°51' E 014°40'0 0.0
2016-Sep-21 09:33N 35°51' E 014°40'0 0.0
2016-Sep-21 08:33N 35°51' E 014°40'19 3.8
2016-Sep-21 03:33N 35°40' E 014°21'9 8.8
2016-Sep-21 02:32N 35°36' E 014°11'  
2016-Sep-15 21:07N 34°39' E 010°51'  
Track history (hours):
 
Tides and Currents Weather Stations Pressure Air Temp Water Temp Dewpoint Dewpoint Depression Visibility Wind Speed Wind Dir Waves Ship Positions

Alexander Maersk

Last reported at 2016-Sep-24 18:06 UTC. Time now 2016-Oct-01 22:24 UTC.
Position N 35°46' E 014°35'.

Length 155 m; draft 9 m.

Type: Cargo ship. MMSI: 219470000.

Date/timePositionNaut miles runAvg speedWind from/ knotsBaromVisibWave heightAir tempDewpointWater temp
2016-Sep-24 18:06N 35°46' E 014°35'3 6.0
2016-Sep-24 17:33N 35°49' E 014°32'0 0.0
2016-Sep-24 10:13N 35°49' E 014°32'0 0.0
2016-Sep-24 03:31N 35°49' E 014°32'0 0.0
2016-Sep-23 13:04N 35°49' E 014°32'6 1.8
2016-Sep-23 09:31N 35°51' E 014°40'0 0.0
2016-Sep-23 06:31N 35°51' E 014°40'0 0.0
2016-Sep-23 04:31N 35°51' E 014°40'0 0.0
2016-Sep-23 03:28N 35°51' E 014°40'0 0.0
2016-Sep-23 02:31N 35°51' E 014°40'0 0.0
2016-Sep-23 01:31N 35°51' E 014°40'0 0.0
2016-Sep-23 00:31N 35°51' E 014°40'0 0.0
2016-Sep-22 23:31N 35°51' E 014°40'0 0.0
2016-Sep-22 20:31N 35°51' E 014°40'0 0.0
2016-Sep-22 12:28N 35°51' E 014°40'0 0.0
2016-Sep-22 04:33N 35°51' E 014°40'0 0.1
2016-Sep-22 03:33N 35°51' E 014°40'0 0.0
2016-Sep-22 00:33N 35°51' E 014°40'0 0.0
2016-Sep-21 23:33N 35°51' E 014°40'0 0.0
2016-Sep-21 22:33N 35°51' E 014°40'0 0.0
2016-Sep-21 19:33N 35°51' E 014°40'0 0.0
2016-Sep-21 16:33N 35°51' E 014°40'0 0.0
2016-Sep-21 09:33N 35°51' E 014°40'0 0.0
2016-Sep-21 08:33N 35°51' E 014°40'19 3.8
2016-Sep-21 03:33N 35°40' E 014°21'9 8.8
2016-Sep-21 02:32N 35°36' E 014°11'  
2016-Sep-15 21:07N 34°39' E 010°51'  

Dump ship's entire track history